首页
METAR-TAF:

METAR-TAF

机场 :

阿拉德, 罗马尼亚

纬度: 46-12N, 经度: 021-24E, 海拔: 117米

当前天气观测

该预报发布于37分钟前的05:30 UTC
风速6节,风向
温度 3°C
湿度 100%
气压 1020 hPa
能見度: 1000
多云层高于100英尺
阴天层高于200英尺
小毛毛雨, 轻雾

METAR: LRAR 080530Z 19006KT 1000 R09/1200 R27/1800U -DZ BR BKN001 OVC002 03/03 Q1020 RERA

时间: 08:07 (06:07 UTC)

预报

该预报发布于1小时和7分钟前的05:00 UTC
预报有效从08日的 06点(UTC)到 08日的 15点(UTC)
风速4节,风向多变
能見度: 0800
阴天层高于200英尺
成为
从 08日的 06点(UTC)到 08日的 08点(UTC)
能見度: 1500
多云层高于500英尺
轻雾
成为
从 08日的 09点(UTC)到 08日的 11点(UTC)
风速10节,风向南转南东
能見度: 5000
多云层高于1500英尺
短暂存在
从 08日的 12点(UTC)到 08日的 15点(UTC)
能见度10公里或以上
散云层高于1000英尺
多云层高于2000英尺

TAF: LRAR 080500Z 0806/0815 VRB04KT 0800 FG OVC002 BECMG 0806/0808 1500 BR BKN005 BECMG 0809/0811 16010KT 5000 BKN015 TEMPO 0812/0815 9999 NSW SCT010 BKN020

超过4000个机场的气象观测和天气预报(METAR&TAF报告)。

可查询的气象台以黄色和红色小点在地图上表示。

将鼠标移到小点上方,可查看气象台名称。

然后点击查看天气观测和预报。

如需切换地图:点击带黑十字的绿色按钮放大地图;点击带横线的绿色按钮缩小地图;或者点击绿色箭头查看邻近地区的地图。


METAR-TAF: